Terminal Aerodrome Forecast
Issued by NWS North Platte, NE

Home | Current Version | Previous Version | Text Only | Print | Product List | Glossary Off
Versions: 1 2 3 4 5 6 7 8 9 10 11 12 13 14 15 16 17

228
FTUS43 KLBF 290309 AAA
TAFVTN
TAF AMD
KVTN 290309Z 2903/2924 30010KT P6SM -TSRA BKN070CB BKN120
      TEMPO 2903/2905 29028G33KT
     FM290500 14003KT P6SM BKN070
     FM291800 09008KT P6SM SCT100=

USA.gov is the U.S. government's official web portal to all federal, state and local government web resources and services.